createdAt,value
2019-05-07T00:02:24.879Z,5.30
2019-05-07T00:04:55.180Z,5.30
2019-05-07T00:07:31.576Z,5.30
2019-05-07T00:10:00.226Z,5.30
2019-05-07T00:12:32.286Z,5.30
2019-05-07T00:15:04.350Z,5.30
2019-05-07T00:17:34.734Z,5.40
2019-05-07T00:20:04.507Z,5.30
2019-05-07T00:22:35.978Z,5.40
2019-05-07T00:25:07.182Z,5.40
2019-05-07T00:27:35.661Z,5.30
2019-05-07T00:30:06.211Z,5.30
2019-05-07T00:32:37.342Z,5.30
2019-05-07T00:35:09.745Z,5.20
2019-05-07T00:37:48.626Z,5.20
2019-05-07T00:40:32.094Z,5.20
2019-05-07T00:43:04.313Z,5.20
2019-05-07T00:45:46.323Z,5.20
2019-05-07T00:48:16.420Z,5.10
2019-05-07T00:50:46.422Z,5.10
2019-05-07T00:53:17.504Z,5.00
2019-05-07T00:55:52.461Z,5.10
2019-05-07T00:58:25.716Z,5.10
2019-05-07T01:00:52.965Z,5.00
2019-05-07T01:03:22.200Z,5.00
2019-05-07T01:05:52.679Z,5.00
2019-05-07T01:08:22.558Z,5.00
2019-05-07T01:10:54.120Z,5.00
2019-05-07T01:13:23.395Z,5.10
2019-05-07T01:15:54.188Z,5.10
2019-05-07T01:18:23.423Z,5.10
2019-05-07T01:20:55.127Z,5.10
2019-05-07T01:23:23.595Z,5.10
2019-05-07T01:25:52.822Z,5.20
2019-05-07T01:28:22.409Z,5.10
2019-05-07T01:30:54.414Z,5.20
2019-05-07T01:33:42.605Z,5.20
2019-05-07T01:36:13.236Z,5.20
2019-05-07T01:38:42.718Z,5.20
2019-05-07T01:41:13.405Z,5.20
2019-05-07T01:43:42.886Z,5.20
2019-05-07T01:46:12.396Z,5.20
2019-05-07T01:48:44.476Z,5.20
2019-05-07T01:51:13.046Z,5.20
2019-05-07T01:53:46.157Z,5.20
2019-05-07T01:56:17.279Z,5.10
2019-05-07T01:58:48.762Z,5.10
2019-05-07T02:01:25.900Z,5.10
2019-05-07T02:04:12.769Z,5.00
2019-05-07T02:06:59.374Z,5.00
2019-05-07T02:09:45.830Z,5.00
2019-05-07T02:12:15.856Z,4.90
2019-05-07T02:14:44.514Z,5.00
2019-05-07T02:17:17.881Z,4.90
2019-05-07T02:19:44.843Z,5.00
2019-05-07T02:22:16.561Z,5.00
2019-05-07T02:24:46.613Z,4.90
2019-05-07T02:27:17.984Z,5.00
2019-05-07T02:29:46.385Z,5.00
2019-05-07T02:32:14.789Z,5.00
2019-05-07T02:34:44.180Z,4.90
2019-05-07T02:37:15.082Z,4.90
2019-05-07T02:39:48.135Z,4.90
2019-05-07T02:42:16.524Z,4.80
2019-05-07T02:45:04.022Z,4.80
2019-05-07T02:47:34.724Z,4.80
2019-05-07T02:50:08.966Z,4.70
2019-05-07T02:52:53.661Z,4.70
2019-05-07T02:55:25.886Z,4.70
2019-05-07T02:57:54.427Z,4.70
2019-05-07T03:00:24.202Z,4.70
2019-05-07T03:02:57.390Z,4.70
2019-05-07T03:05:26.180Z,4.70
2019-05-07T03:07:54.651Z,4.80
2019-05-07T03:10:23.908Z,4.80
2019-05-07T03:12:53.689Z,4.80
2019-05-07T03:15:24.903Z,4.80
2019-05-07T03:17:53.986Z,4.70
2019-05-07T03:20:27.391Z,4.70
2019-05-07T03:23:03.103Z,4.70
2019-05-07T03:25:49.016Z,4.70
2019-05-07T03:28:24.624Z,4.70
2019-05-07T03:31:05.853Z,4.70
2019-05-07T03:33:55.435Z,4.70
2019-05-07T03:36:46.724Z,4.70
2019-05-07T03:39:14.059Z,4.60
2019-05-07T03:41:43.328Z,4.60
2019-05-07T03:44:16.951Z,4.60
2019-05-07T03:47:01.126Z,4.50
2019-05-07T03:49:29.149Z,4.50
2019-05-07T03:52:03.878Z,4.50
2019-05-07T03:54:34.264Z,4.60
2019-05-07T03:57:10.761Z,4.50
2019-05-07T03:59:34.404Z,4.50
2019-05-07T04:02:06.546Z,4.60
2019-05-07T04:04:35.006Z,4.60
2019-05-07T04:07:14.204Z,4.60
2019-05-07T04:09:43.715Z,4.60
2019-05-07T04:12:14.374Z,4.60
2019-05-07T04:14:47.235Z,4.60
2019-05-07T04:17:22.445Z,4.70
2019-05-07T04:19:46.901Z,4.80
2019-05-07T04:22:16.983Z,4.80
2019-05-07T04:25:13.248Z,4.80
2019-05-07T04:27:46.915Z,4.90
2019-05-07T04:30:15.130Z,5.00
2019-05-07T04:32:45.200Z,5.10
2019-05-07T04:35:27.252Z,5.20
2019-05-07T04:37:55.796Z,5.30
2019-05-07T04:40:27.142Z,5.40
2019-05-07T04:42:57.381Z,5.40
2019-05-07T04:45:30.106Z,5.50
2019-05-07T04:47:58.520Z,5.50
2019-05-07T04:50:42.056Z,5.60
2019-05-07T04:53:02.806Z,5.60
2019-05-07T04:55:33.507Z,5.70
2019-05-07T04:58:03.400Z,5.80
2019-05-07T05:00:39.424Z,5.80
2019-05-07T05:03:12.994Z,5.90
2019-05-07T05:05:43.583Z,5.90
2019-05-07T05:08:13.381Z,6.00
2019-05-07T05:10:45.847Z,6.20
2019-05-07T05:13:14.509Z,6.50
2019-05-07T05:15:43.287Z,6.70
2019-05-07T05:18:13.285Z,6.90
2019-05-07T05:20:48.853Z,7.10
2019-05-07T05:23:22.746Z,7.30
2019-05-07T05:25:52.226Z,7.50
2019-05-07T05:28:23.921Z,7.60
2019-05-07T05:30:56.644Z,7.60
2019-05-07T05:33:25.110Z,7.90
2019-05-07T05:35:56.194Z,8.10
2019-05-07T05:38:24.594Z,8.20
2019-05-07T05:40:53.877Z,8.30
2019-05-07T05:43:39.859Z,8.30
2019-05-07T05:46:11.934Z,8.40
2019-05-07T05:48:43.046Z,8.30
2019-05-07T05:51:28.291Z,8.30
2019-05-07T05:54:04.442Z,8.30
2019-05-07T05:56:37.640Z,8.40
2019-05-07T05:59:12.118Z,8.70
2019-05-07T06:01:48.579Z,8.80
2019-05-07T06:04:24.463Z,8.90
2019-05-07T06:07:14.755Z,9.00
2019-05-07T06:09:54.547Z,9.10
2019-05-07T06:12:32.629Z,9.30
2019-05-07T06:15:02.516Z,9.30
2019-05-07T06:17:42.497Z,9.30
2019-05-07T06:20:15.599Z,9.40
2019-05-07T06:23:02.053Z,9.60
2019-05-07T06:25:33.408Z,10.20
2019-05-07T06:28:01.924Z,11.10
2019-05-07T06:30:30.750Z,11.50
2019-05-07T06:33:04.634Z,11.50
2019-05-07T06:35:42.900Z,11.40
2019-05-07T06:38:13.711Z,11.30
2019-05-07T06:40:46.592Z,11.40
2019-05-07T06:43:28.871Z,11.60
2019-05-07T06:45:58.947Z,11.60
2019-05-07T06:48:38.983Z,11.50
2019-05-07T06:51:02.924Z,11.50
2019-05-07T06:53:39.562Z,11.50
2019-05-07T06:56:08.021Z,11.50
2019-05-07T06:58:38.065Z,11.50
2019-05-07T07:01:16.933Z,11.60
2019-05-07T07:04:08.231Z,11.80
2019-05-07T07:06:52.335Z,12.20
2019-05-07T07:09:42.304Z,12.30
2019-05-07T07:12:14.698Z,12.80
2019-05-07T07:14:43.169Z,13.30
2019-05-07T07:17:12.953Z,13.80
2019-05-07T07:19:52.335Z,14.30
2019-05-07T07:22:22.390Z,14.60
2019-05-07T07:24:53.003Z,15.10
2019-05-07T07:27:22.696Z,15.10
2019-05-07T07:30:12.837Z,14.90
2019-05-07T07:32:48.900Z,14.80
2019-05-07T07:35:19.015Z,14.70
2019-05-07T07:37:52.887Z,14.40
2019-05-07T07:40:23.194Z,14.10
2019-05-07T07:42:53.236Z,13.90
2019-05-07T07:45:23.037Z,14.20
2019-05-07T07:47:59.447Z,14.20
2019-05-07T07:50:32.386Z,14.40
2019-05-07T07:53:02.487Z,14.30
2019-05-07T07:55:33.107Z,14.70
2019-05-07T07:58:06.053Z,14.90
2019-05-07T08:00:42.886Z,15.20
2019-05-07T08:03:13.518Z,15.40
2019-05-07T08:05:42.698Z,15.60
2019-05-07T08:08:12.818Z,16.20
2019-05-07T08:10:42.801Z,16.40
2019-05-07T08:13:12.243Z,16.60
2019-05-07T08:15:43.037Z,16.70
2019-05-07T08:18:15.819Z,16.60
2019-05-07T08:20:43.032Z,16.70
2019-05-07T08:23:16.583Z,16.70
2019-05-07T08:25:52.545Z,16.90
2019-05-07T08:28:25.668Z,16.60
2019-05-07T08:31:12.268Z,16.30
2019-05-07T08:33:42.634Z,16.10
2019-05-07T08:36:14.798Z,15.70
2019-05-07T08:38:53.215Z,15.70
2019-05-07T08:41:24.510Z,16.40
2019-05-07T08:44:08.220Z,16.70
2019-05-07T08:46:45.799Z,17.40
2019-05-07T08:49:33.342Z,18.20
2019-05-07T08:52:03.619Z,18.60
2019-05-07T08:54:35.397Z,18.10
2019-05-07T08:57:03.908Z,17.90
2019-05-07T08:59:34.071Z,18.70
2019-05-07T09:02:07.167Z,18.30
2019-05-07T09:04:37.317Z,18.00
2019-05-07T09:07:17.996Z,18.20
2019-05-07T09:09:48.064Z,18.50
2019-05-07T09:12:22.994Z,19.00
2019-05-07T09:14:52.992Z,18.60
2019-05-07T09:17:23.985Z,18.80
2019-05-07T09:19:54.942Z,19.70
2019-05-07T09:22:28.747Z,20.50
2019-05-07T09:24:57.185Z,20.60
2019-05-07T09:27:33.092Z,20.70
2019-05-07T09:30:08.934Z,20.70
2019-05-07T09:32:51.990Z,20.60
2019-05-07T09:35:24.259Z,20.10
2019-05-07T09:37:55.591Z,19.80
2019-05-07T09:40:26.959Z,19.40
2019-05-07T09:42:55.706Z,18.90
2019-05-07T09:45:25.830Z,19.30
2019-05-07T09:47:54.635Z,19.80
2019-05-07T09:50:23.073Z,20.20
2019-05-07T09:52:51.941Z,19.60
2019-05-07T09:55:23.811Z,19.90
2019-05-07T09:57:52.723Z,19.50
2019-05-07T10:00:25.356Z,19.40
2019-05-07T10:02:56.869Z,19.10
2019-05-07T10:05:28.218Z,19.50
2019-05-07T10:07:56.787Z,20.10
2019-05-07T10:10:25.252Z,20.60
2019-05-07T10:13:04.059Z,20.50
2019-05-07T10:15:33.132Z,20.00
2019-05-07T10:18:18.393Z,19.70
2019-05-07T10:20:48.653Z,19.00
2019-05-07T10:23:22.418Z,19.00
2019-05-07T10:25:51.554Z,18.80
2019-05-07T10:28:23.042Z,19.00
2019-05-07T10:30:52.882Z,19.30
2019-05-07T10:33:22.865Z,19.30
2019-05-07T10:35:52.855Z,18.90
2019-05-07T10:38:22.214Z,18.40
2019-05-07T10:40:50.975Z,18.10
2019-05-07T10:43:22.095Z,19.00
2019-05-07T10:45:55.770Z,19.60
2019-05-07T10:48:25.975Z,19.80
2019-05-07T10:51:04.919Z,19.80
2019-05-07T10:53:34.185Z,19.60
2019-05-07T10:56:02.811Z,19.60
2019-05-07T10:58:32.184Z,19.40
2019-05-07T11:01:03.098Z,19.80
2019-05-07T11:03:32.359Z,20.90
2019-05-07T11:06:01.769Z,21.70
2019-05-07T11:08:32.726Z,21.40
2019-05-07T11:11:02.902Z,20.70
2019-05-07T11:13:34.277Z,19.80
2019-05-07T11:16:04.568Z,19.60
2019-05-07T11:18:37.579Z,19.20
2019-05-07T11:21:07.953Z,19.00
2019-05-07T11:23:41.769Z,18.70
2019-05-07T11:26:11.757Z,19.40
2019-05-07T11:28:43.326Z,20.20
2019-05-07T11:31:17.909Z,20.70
2019-05-07T11:33:48.712Z,20.60
2019-05-07T11:36:17.224Z,20.80
2019-05-07T11:38:45.656Z,21.20
2019-05-07T11:41:14.143Z,21.00
2019-05-07T11:43:58.531Z,21.10
2019-05-07T11:46:34.443Z,21.40
2019-05-07T11:49:22.810Z,20.80
2019-05-07T11:51:55.566Z,20.30
2019-05-07T11:54:24.356Z,19.90
2019-05-07T11:56:58.953Z,19.40
2019-05-07T11:59:27.355Z,18.00
2019-05-07T12:01:57.668Z,17.70
2019-05-07T12:04:27.872Z,17.70
2019-05-07T12:07:02.453Z,17.80
2019-05-07T12:09:26.641Z,18.10
2019-05-07T12:11:55.318Z,18.30
2019-05-07T12:14:32.564Z,18.80
2019-05-07T12:16:59.466Z,19.20
2019-05-07T12:19:28.810Z,18.80
2019-05-07T12:21:57.209Z,18.50
2019-05-07T12:24:25.954Z,18.20
2019-05-07T12:26:57.717Z,17.90
2019-05-07T12:29:27.257Z,17.80
2019-05-07T12:31:57.518Z,18.40
2019-05-07T12:34:33.882Z,19.30
2019-05-07T12:37:08.315Z,19.90
2019-05-07T12:39:42.326Z,19.90
2019-05-07T12:42:12.049Z,19.60
2019-05-07T12:44:42.530Z,19.40
2019-05-07T12:47:14.461Z,18.90
2019-05-07T12:49:44.576Z,18.70
2019-05-07T12:52:22.639Z,18.40
2019-05-07T12:54:55.326Z,18.90
2019-05-07T12:57:23.686Z,19.60
2019-05-07T12:59:52.961Z,20.80
2019-05-07T13:02:40.863Z,21.80
2019-05-07T13:05:07.148Z,21.70
2019-05-07T13:07:37.350Z,21.00
2019-05-07T13:10:08.859Z,20.50
2019-05-07T13:12:42.011Z,20.20
2019-05-07T13:15:24.383Z,20.30
2019-05-07T13:17:45.543Z,19.80
2019-05-07T13:20:14.820Z,19.20
2019-05-07T13:22:43.262Z,19.20
2019-05-07T13:25:12.264Z,18.70
2019-05-07T13:27:42.716Z,19.20
2019-05-07T13:30:11.882Z,19.30
2019-05-07T13:32:46.637Z,18.80
2019-05-07T13:35:15.824Z,18.00
2019-05-07T13:37:47.154Z,18.00
2019-05-07T13:40:18.029Z,18.10
2019-05-07T13:43:02.776Z,18.20
2019-05-07T13:45:32.432Z,18.20
2019-05-07T13:48:12.151Z,18.50
2019-05-07T13:50:42.011Z,18.70
2019-05-07T13:53:12.324Z,18.80
2019-05-07T13:55:42.326Z,18.70
2019-05-07T13:58:14.033Z,18.70
2019-05-07T14:00:43.570Z,18.60
2019-05-07T14:03:13.326Z,19.00
2019-05-07T14:05:44.862Z,19.40
2019-05-07T14:08:17.048Z,19.40
2019-05-07T14:10:45.579Z,19.30
2019-05-07T14:13:17.458Z,19.50
2019-05-07T14:16:04.652Z,19.70
2019-05-07T14:18:34.773Z,20.70
2019-05-07T14:21:04.471Z,22.50
2019-05-07T14:23:33.297Z,24.00
2019-05-07T14:26:08.479Z,25.50
2019-05-07T14:28:42.152Z,24.20
2019-05-07T14:31:15.341Z,23.20
2019-05-07T14:33:57.268Z,23.00
2019-05-07T14:36:39.163Z,23.80
2019-05-07T14:39:10.732Z,23.30
2019-05-07T14:41:46.420Z,21.20
2019-05-07T14:44:16.463Z,20.40
2019-05-07T14:46:50.734Z,19.80
2019-05-07T14:49:15.299Z,19.30
2019-05-07T14:51:43.989Z,19.00
2019-05-07T14:54:18.584Z,18.90
2019-05-07T14:56:46.974Z,19.00
2019-05-07T14:59:18.447Z,18.90
2019-05-07T15:01:46.905Z,19.20
2019-05-07T15:04:15.437Z,18.90
2019-05-07T15:06:46.530Z,18.70
2019-05-07T15:09:14.039Z,19.30
2019-05-07T15:11:42.872Z,19.90
2019-05-07T15:14:14.497Z,21.30
2019-05-07T15:16:43.793Z,22.10
2019-05-07T15:19:13.974Z,22.80
2019-05-07T15:21:43.659Z,23.30
2019-05-07T15:24:14.131Z,24.40
2019-05-07T15:26:46.695Z,23.90
2019-05-07T15:29:18.054Z,21.90
2019-05-07T15:31:57.054Z,20.40
2019-05-07T15:34:25.512Z,19.20
2019-05-07T15:36:53.972Z,18.10
2019-05-07T15:39:25.289Z,17.90
2019-05-07T15:41:53.689Z,17.50
2019-05-07T15:44:24.846Z,16.80
2019-05-07T15:46:54.874Z,16.20
2019-05-07T15:49:27.817Z,15.80
2019-05-07T15:52:03.935Z,15.70
2019-05-07T15:54:32.655Z,15.50
2019-05-07T15:57:06.389Z,15.30
2019-05-07T15:59:34.786Z,15.50
2019-05-07T16:02:12.255Z,15.60
2019-05-07T16:04:40.358Z,15.80
2019-05-07T16:07:13.349Z,15.90
2019-05-07T16:09:45.042Z,15.90
2019-05-07T16:12:15.070Z,15.80
2019-05-07T16:14:43.453Z,15.60
2019-05-07T16:17:15.302Z,15.50
2019-05-07T16:19:46.744Z,15.20
2019-05-07T16:22:18.346Z,15.10
2019-05-07T16:24:49.969Z,14.90
2019-05-07T16:27:22.450Z,14.90
2019-05-07T16:29:53.121Z,15.00
2019-05-07T16:32:23.919Z,14.90
2019-05-07T16:34:57.496Z,14.90
2019-05-07T16:37:25.926Z,14.90
2019-05-07T16:39:54.554Z,14.90
2019-05-07T16:42:22.953Z,14.90
2019-05-07T16:44:52.337Z,14.90
2019-05-07T16:47:22.858Z,14.90
2019-05-07T16:49:51.697Z,14.80
2019-05-07T16:52:22.465Z,14.90
2019-05-07T16:54:55.898Z,14.80
2019-05-07T16:57:38.018Z,14.60
2019-05-07T17:00:09.717Z,14.60
2019-05-07T17:02:42.777Z,14.50
2019-05-07T17:05:17.510Z,14.50
2019-05-07T17:07:52.141Z,14.50
2019-05-07T17:10:23.597Z,14.50
2019-05-07T17:12:52.544Z,14.40
2019-05-07T17:15:22.890Z,14.10
2019-05-07T17:18:04.071Z,13.90
2019-05-07T17:20:32.996Z,13.70
2019-05-07T17:23:03.776Z,13.50
2019-05-07T17:25:42.652Z,13.40
2019-05-07T17:28:12.615Z,13.20
2019-05-07T17:30:42.147Z,13.10
2019-05-07T17:33:13.030Z,13.00
2019-05-07T17:35:42.318Z,12.90
2019-05-07T17:38:13.141Z,12.80
2019-05-07T17:40:42.385Z,12.70
2019-05-07T17:43:18.792Z,12.60
2019-05-07T17:45:49.213Z,12.60
2019-05-07T17:48:20.599Z,12.60
2019-05-07T17:50:58.079Z,12.60
2019-05-07T17:53:27.121Z,12.60
2019-05-07T17:55:55.690Z,12.60
2019-05-07T17:58:32.416Z,12.50
2019-05-07T18:01:02.780Z,12.40
2019-05-07T18:03:38.823Z,12.30
2019-05-07T18:06:08.599Z,12.20
2019-05-07T18:08:39.544Z,12.00
2019-05-07T18:11:20.290Z,11.80
2019-05-07T18:13:38.473Z,11.60
2019-05-07T18:16:08.841Z,11.40
2019-05-07T18:18:40.023Z,11.30
2019-05-07T18:21:09.785Z,11.10
2019-05-07T18:23:39.720Z,10.90
2019-05-07T18:26:26.312Z,10.70
2019-05-07T18:28:42.483Z,10.60
2019-05-07T18:31:12.619Z,10.50
2019-05-07T18:33:45.778Z,10.40
2019-05-07T18:36:14.223Z,10.30
2019-05-07T18:38:42.719Z,10.20
2019-05-07T18:41:12.175Z,10.10
2019-05-07T18:43:44.201Z,10.00
2019-05-07T18:46:13.078Z,9.80
2019-05-07T18:48:42.619Z,9.60
2019-05-07T18:51:12.190Z,9.50
2019-05-07T18:53:42.916Z,9.30
2019-05-07T18:56:12.647Z,9.30
2019-05-07T18:58:42.598Z,9.20
2019-05-07T19:01:13.798Z,9.10
2019-05-07T19:03:42.527Z,8.90
2019-05-07T19:06:13.522Z,8.80
2019-05-07T19:08:42.444Z,8.70
2019-05-07T19:11:12.383Z,8.50
2019-05-07T19:13:41.992Z,8.50
2019-05-07T19:16:12.553Z,8.50
2019-05-07T19:18:43.088Z,8.50
2019-05-07T19:21:11.806Z,8.60
2019-05-07T19:23:42.373Z,8.50
2019-05-07T19:26:13.141Z,8.60
2019-05-07T19:28:41.809Z,8.60
2019-05-07T19:31:12.297Z,8.50
2019-05-07T19:33:41.939Z,8.40
2019-05-07T19:36:11.075Z,8.30
2019-05-07T19:38:41.878Z,8.10
2019-05-07T19:41:12.193Z,8.10
2019-05-07T19:43:41.979Z,8.10
2019-05-07T19:46:13.415Z,8.10
2019-05-07T19:48:43.850Z,8.10
2019-05-07T19:51:14.592Z,8.10
2019-05-07T19:53:43.174Z,8.00
2019-05-07T19:56:16.227Z,7.90
2019-05-07T19:58:44.692Z,7.80
2019-05-07T20:01:14.957Z,7.70
2019-05-07T20:03:43.564Z,7.60
2019-05-07T20:06:16.760Z,7.50
2019-05-07T20:08:47.260Z,7.40
2019-05-07T20:11:17.385Z,7.40
2019-05-07T20:13:47.469Z,7.50
2019-05-07T20:16:22.934Z,7.50
2019-05-07T20:18:52.705Z,7.60
2019-05-07T20:21:27.294Z,7.60
2019-05-07T20:23:57.424Z,7.70
2019-05-07T20:26:25.838Z,7.80
2019-05-07T20:28:54.251Z,7.90
2019-05-07T20:31:24.114Z,8.00
2019-05-07T20:33:53.111Z,8.20
2019-05-07T20:36:25.469Z,8.20
2019-05-07T20:38:54.109Z,8.20
2019-05-07T20:41:25.621Z,8.10
2019-05-07T20:43:56.913Z,8.10
2019-05-07T20:46:25.317Z,8.10
2019-05-07T20:48:53.809Z,8.10
2019-05-07T20:51:24.569Z,8.10
2019-05-07T20:54:14.168Z,8.00
2019-05-07T20:57:02.643Z,8.10
2019-05-07T20:59:32.771Z,8.00
2019-05-07T21:02:02.318Z,8.00
2019-05-07T21:04:32.987Z,7.90
2019-05-07T21:07:02.186Z,7.90
2019-05-07T21:09:32.843Z,7.80
2019-05-07T21:12:01.601Z,7.80
2019-05-07T21:14:32.281Z,7.70
2019-05-07T21:17:00.485Z,7.50
2019-05-07T21:19:28.905Z,7.50
2019-05-07T21:22:01.999Z,7.40
2019-05-07T21:24:30.107Z,7.30
2019-05-07T21:26:58.578Z,7.30
2019-05-07T21:29:28.615Z,7.30
2019-05-07T21:31:58.451Z,7.30
2019-05-07T21:34:28.798Z,7.20
2019-05-07T21:37:00.142Z,7.20
2019-05-07T21:39:34.430Z,7.20
2019-05-07T21:42:04.805Z,7.20
2019-05-07T21:44:34.768Z,7.20
2019-05-07T21:47:03.841Z,7.20
2019-05-07T21:49:32.950Z,7.20
2019-05-07T21:52:01.950Z,7.20
2019-05-07T21:54:38.775Z,7.30
2019-05-07T21:57:25.139Z,7.30
2019-05-07T21:59:55.200Z,7.30
2019-05-07T22:02:29.902Z,7.40
2019-05-07T22:04:58.615Z,7.40
2019-05-07T22:07:28.348Z,7.30
2019-05-07T22:09:56.805Z,7.30
2019-05-07T22:12:25.271Z,7.20
2019-05-07T22:14:56.472Z,7.10
2019-05-07T22:17:30.964Z,7.10
2019-05-07T22:19:59.618Z,7.10
2019-05-07T22:22:32.005Z,7.10
2019-05-07T22:25:04.971Z,7.10
2019-05-07T22:27:32.740Z,7.10
2019-05-07T22:30:03.485Z,7.10
2019-05-07T22:32:36.327Z,7.10
2019-05-07T22:35:12.078Z,7.10
2019-05-07T22:37:41.358Z,7.20
2019-05-07T22:40:12.859Z,7.20
2019-05-07T22:42:42.111Z,7.20
2019-05-07T22:45:13.751Z,7.30
2019-05-07T22:47:42.149Z,7.30
2019-05-07T22:50:11.974Z,7.20
2019-05-07T22:52:40.984Z,7.20
2019-05-07T22:55:09.546Z,7.10
2019-05-07T22:57:48.908Z,7.00
2019-05-07T23:00:19.070Z,6.90
2019-05-07T23:02:47.553Z,6.90
2019-05-07T23:05:17.475Z,6.90
2019-05-07T23:07:45.936Z,6.80
2019-05-07T23:10:14.404Z,6.80
2019-05-07T23:12:45.767Z,6.80
2019-05-07T23:15:22.587Z,6.80
2019-05-07T23:17:52.026Z,6.80
2019-05-07T23:20:26.993Z,6.70
2019-05-07T23:22:55.440Z,6.70
2019-05-07T23:25:24.555Z,6.80
2019-05-07T23:27:59.232Z,6.80
2019-05-07T23:30:34.449Z,6.80
2019-05-07T23:33:02.870Z,6.80
2019-05-07T23:35:32.874Z,6.80
2019-05-07T23:38:02.478Z,6.80
2019-05-07T23:40:52.661Z,6.90
2019-05-07T23:43:24.245Z,6.90
2019-05-07T23:45:52.881Z,6.90
2019-05-07T23:48:22.844Z,6.90
2019-05-07T23:50:54.081Z,6.80
2019-05-07T23:53:22.597Z,6.80
2019-05-07T23:55:52.027Z,6.70
2019-05-07T23:58:24.573Z,6.70
